Time;durP1;ratioP1;P1;durP2;ratioP2;P2;SDS_P1;SDS_P2;PMS_P1;PMS_P2;Temp;Humidity;BMP_temperature;BMP_pressure;BME280_temperature;BME280_humidity;BME280_pressure;Samples;Min_cycle;Max_cycle;Signal;HPM_P1;HPM_P2
2023/07/12 00:00:23;;;;;;;8.07;7.47;;;;;;;24.17;65.98;99679.94;4976560;28;20227;-79
2023/07/12 00:02:50;;;;;;;7.60;7.10;;;;;;;24.18;66.82;99694.09;4975689;28;20200;-82
2023/07/12 00:05:18;;;;;;;8.70;8.10;;;;;;;24.19;66.50;99698.47;4976858;28;20206;-83
2023/07/12 00:07:46;;;;;;;7.67;6.90;;;;;;;24.18;65.83;99716.28;4980417;28;20313;-84
2023/07/12 00:10:18;;;;;;;8.53;7.87;;;;;;;24.19;66.02;99704.63;4962368;28;20203;-84
2023/07/12 00:12:45;;;;;;;7.50;7.00;;;;;;;24.19;66.76;99690.47;4956094;28;20203;-82
2023/07/12 00:15:15;;;;;;;8.17;7.57;;;;;;;24.19;65.50;99706.47;4956300;28;20263;-84
2023/07/12 00:17:41;;;;;;;7.93;7.33;;;;;;;24.13;65.42;99707.00;4957497;28;20285;-84
2023/07/12 00:20:18;;;;;;;8.43;7.63;;;;;;;24.10;66.86;99678.78;4957097;28;20736;-84
2023/07/12 00:22:46;;;;;;;7.50;6.90;;;;;;;24.12;67.01;99649.31;4969476;28;20209;-84
2023/07/12 00:25:13;;;;;;;8.40;7.67;;;;;;;24.08;66.78;99653.22;4976431;28;20233;-83
2023/07/12 00:27:39;;;;;;;7.47;6.87;;;;;;;24.07;66.91;99644.38;4976003;28;20239;-83
2023/07/12 00:30:12;;;;;;;8.30;7.53;;;;;;;24.02;68.17;99629.78;4975667;28;20249;-84
2023/07/12 00:32:39;;;;;;;8.00;7.40;;;;;;;23.96;65.48;99661.34;4975997;28;20197;-80
2023/07/12 00:35:05;;;;;;;7.87;7.37;;;;;;;24.04;64.92;99721.97;4975853;28;20717;-84
2023/07/12 00:37:32;;;;;;;7.70;7.07;;;;;;;24.13;64.22;99742.50;4974965;28;20640;-84
2023/07/12 00:39:59;;;;;;;7.87;7.27;;;;;;;24.21;64.84;99730.34;4974931;28;20565;-84
2023/07/12 00:42:32;;;;;;;7.00;6.60;;;;;;;24.19;63.36;99775.81;4975389;28;20211;-82
2023/07/12 00:44:59;;;;;;;8.73;6.87;;;;;;;24.22;63.43;99783.56;4975345;28;20282;-84
2023/07/12 00:47:25;;;;;;;7.10;6.60;;;;;;;24.24;62.66;99796.72;4976138;28;20224;-82
2023/07/12 00:49:53;;;;;;;7.67;7.07;;;;;;;24.30;63.61;99791.72;4975845;28;20251;-83
2023/07/12 00:52:21;;;;;;;7.30;6.70;;;;;;;24.33;63.43;99796.78;4975505;28;20206;-84
2023/07/12 00:54:55;;;;;;;7.10;6.50;;;;;;;24.25;64.09;99763.75;4978932;28;20193;-79
2023/07/12 00:57:24;;;;;;;7.37;6.87;;;;;;;24.26;62.31;99798.31;4956709;28;20291;-83
2023/07/12 00:59:51;;;;;;;7.60;6.77;;;;;;;24.33;62.20;99817.28;4955785;28;20658;-84
2023/07/12 01:02:18;;;;;;;6.77;6.27;;;;;;;24.37;60.82;99864.06;4956940;28;20227;-84
2023/07/12 01:04:49;;;;;;;7.03;6.53;;;;;;;24.44;60.30;99899.91;4969085;28;20206;-82
2023/07/12 01:07:16;;;;;;;6.53;6.03;;;;;;;24.50;59.91;99934.09;4974763;28;20296;-84
2023/07/12 01:09:42;;;;;;;7.60;6.27;;;;;;;24.61;59.41;99957.19;4975598;28;20274;-84
2023/07/12 01:12:09;;;;;;;6.03;5.63;;;;;;;24.71;57.63;99999.97;4976028;28;20217;-84
2023/07/12 01:14:39;;;;;;;6.70;6.30;;;;;;;24.78;57.52;100031.34;4975510;28;20612;-83
2023/07/12 01:17:07;;;;;;;6.47;5.93;;;;;;;24.91;57.02;100049.81;4975010;28;20222;-83
2023/07/12 01:19:35;;;;;;;5.90;5.50;;;;;;;24.92;56.71;100059.53;4976123;28;20266;-84
2023/07/12 01:22:04;;;;;;;6.73;5.67;;;;;;;25.04;56.80;100065.66;4975382;28;20282;-82
2023/07/12 01:24:31;;;;;;;8.07;6.27;;;;;;;25.06;56.73;100061.03;4978006;28;20266;-85
2023/07/12 01:27:00;;;;;;;6.30;5.80;;;;;;;25.10;56.80;100075.81;4978980;28;20231;-84
2023/07/12 01:29:28;;;;;;;6.53;5.80;;;;;;;25.15;57.34;100038.00;4978677;28;20203;-83
2023/07/12 01:31:55;;;;;;;5.87;5.47;;;;;;;25.05;57.46;100034.44;4978685;28;20199;-84
2023/07/12 01:34:23;;;;;;;8.90;5.60;;;;;;;25.07;57.92;100024.47;4978722;28;20211;-84
2023/07/12 01:36:49;;;;;;;5.20;4.80;;;;;;;25.01;58.14;100011.66;4978649;28;20216;-82
2023/07/12 01:39:17;;;;;;;7.53;4.90;;;;;;;25.08;58.41;99997.63;4978182;28;20730;-84
2023/07/12 01:41:43;;;;;;;6.53;5.17;;;;;;;25.05;58.54;99983.69;4979196;28;20729;-82
2023/07/12 01:44:09;;;;;;;5.80;5.40;;;;;;;25.06;58.86;99988.91;4978541;28;20212;-84
2023/07/12 01:46:36;;;;;;;6.53;5.93;;;;;;;25.01;59.25;99976.94;4979316;28;20224;-81
2023/07/12 01:49:02;;;;;;;5.73;5.30;;;;;;;24.95;59.80;99962.28;4984964;28;20576;-84
2023/07/12 01:51:29;;;;;;;5.97;5.43;;;;;;;24.91;60.12;99950.19;4980754;28;20218;-85
2023/07/12 01:53:56;;;;;;;7.90;5.67;;;;;;;24.88;61.20;99924.59;4977802;28;20198;-84
2023/07/12 01:56:23;;;;;;;5.47;4.97;;;;;;;24.72;62.21;99878.88;4979262;28;20227;-84
2023/07/12 01:58:50;;;;;;;5.60;5.20;;;;;;;24.57;62.98;99870.38;4979326;28;20227;-84
2023/07/12 02:01:16;;;;;;;6.77;5.67;;;;;;;24.48;63.11;99863.13;4978842;28;20251;-82
2023/07/12 02:03:42;;;;;;;6.07;5.57;;;;;;;24.24;63.28;99890.09;4978416;28;20201;-83
2023/07/12 02:06:09;;;;;;;7.83;7.03;;;;;;;23.78;66.67;99823.69;4978493;28;20218;-84
2023/07/12 02:08:35;;;;;;;6.90;6.27;;;;;;;23.04;71.98;99701.09;4978022;28;20206;-84
2023/07/12 02:11:02;;;;;;;14.17;6.80;;;;;;;22.68;75.13;99566.59;4978318;28;20205;-82
2023/07/12 02:13:29;;;;;;;7.40;6.70;;;;;;;22.48;77.12;99499.13;4984637;28;20258;-83
2023/07/12 02:15:56;;;;;;;6.40;5.87;;;;;;;22.47;77.81;99462.84;4959114;28;20205;-83
2023/07/12 02:18:22;;;;;;;6.63;5.90;;;;;;;21.97;81.12;99397.78;4967465;28;20248;-84
2023/07/12 02:20:48;;;;;;;7.70;6.13;;;;;;;21.43;83.94;99358.88;4982261;28;20232;-82
2023/07/12 02:23:15;;;;;;;7.00;6.50;;;;;;;21.41;84.26;99351.00;4958602;28;20275;-83
2023/07/12 02:25:41;;;;;;;10.47;6.50;;;;;;;21.19;85.69;99354.56;4959272;28;20237;-82
2023/07/12 02:28:08;;;;;;;8.40;7.20;;;;;;;21.13;86.84;99354.19;4958503;28;20582;-84
2023/07/12 02:30:37;;;;;;;7.13;6.53;;;;;;;20.87;88.84;99324.44;4958940;28;20211;-82
2023/07/12 02:33:04;;;;;;;6.73;6.10;;;;;;;20.85;89.41;99311.31;4958817;28;20203;-83
2023/07/12 02:35:31;;;;;;;6.87;6.27;;;;;;;20.79;90.02;99322.41;4958487;28;20208;-83
2023/07/12 02:37:59;;;;;;;7.00;6.50;;;;;;;20.50;91.57;99303.47;4974739;28;20219;-83
2023/07/12 02:40:26;;;;;;;6.70;5.73;;;;;;;20.75;91.00;99313.00;4978214;28;20553;-84
2023/07/12 02:42:53;;;;;;;7.30;6.63;;;;;;;20.35;93.40;99298.38;4977893;28;20220;-84
2023/07/12 02:45:20;;;;;;;7.57;7.07;;;;;;;20.35;94.07;99282.47;4977826;28;20200;-82
2023/07/12 02:47:48;;;;;;;7.20;6.63;;;;;;;20.55;92.86;99311.91;4977878;28;21045;-84
2023/07/12 02:50:14;;;;;;;7.10;6.40;;;;;;;19.89;96.82;99299.28;4978069;28;20200;-84
2023/07/12 02:52:41;;;;;;;8.77;7.97;;;;;;;19.55;100.00;99255.97;4957934;28;20730;-83
2023/07/12 02:55:08;;;;;;;7.73;7.17;;;;;;;19.68;99.86;99287.63;4973077;28;20807;-83
2023/07/12 02:57:34;;;;;;;10.73;7.80;;;;;;;19.74;99.57;99333.09;4978161;28;20698;-84
2023/07/12 03:00:01;;;;;;;11.43;7.03;;;;;;;19.63;100.00;99328.53;4978310;28;20204;-84
2023/07/12 03:02:29;;;;;;;6.93;6.43;;;;;;;19.57;100.00;99341.41;4978055;28;20224;-84
2023/07/12 03:04:56;;;;;;;6.80;6.30;;;;;;;19.62;100.00;99336.59;4978339;28;20204;-84
2023/07/12 03:07:23;;;;;;;6.57;5.90;;;;;;;19.78;99.64;99376.91;4976857;28;20232;-84
2023/07/12 03:09:49;;;;;;;6.97;6.37;;;;;;;19.64;100.00;99393.78;4978942;28;20200;-83
2023/07/12 03:12:15;;;;;;;7.27;6.67;;;;;;;19.39;100.00;99381.47;4978416;28;20259;-84
2023/07/12 03:14:42;;;;;;;7.87;7.17;;;;;;;19.43;100.00;99382.13;4977212;28;20235;-84
2023/07/12 03:17:08;;;;;;;7.20;6.67;;;;;;;19.30;100.00;99394.53;4978249;28;20219;-84
2023/07/12 03:19:35;;;;;;;6.43;5.93;;;;;;;19.36;100.00;99386.97;4978475;28;20212;-84
2023/07/12 03:22:03;;;;;;;6.57;5.97;;;;;;;19.62;100.00;99435.41;4978098;28;20713;-82
2023/07/12 03:24:30;;;;;;;6.87;6.37;;;;;;;19.40;100.00;99419.38;4978481;28;20200;-84
2023/07/12 03:26:56;;;;;;;6.67;5.93;;;;;;;19.49;100.00;99439.91;4978144;28;20306;-82
2023/07/12 03:29:23;;;;;;;7.60;5.97;;;;;;;19.39;100.00;99439.72;4978421;28;20200;-83
2023/07/12 03:31:49;;;;;;;6.03;5.53;;;;;;;19.50;100.00;99454.81;4978613;28;20204;-83
2023/07/12 03:34:16;;;;;;;6.33;5.83;;;;;;;19.48;100.00;99467.31;4978138;28;20211;-83
2023/07/12 03:36:43;;;;;;;6.50;5.77;;;;;;;19.69;100.00;99483.47;4977783;28;20275;-84
2023/07/12 03:39:10;;;;;;;4.53;4.13;;;;;;;19.95;99.28;99512.53;4964430;28;20212;-84
2023/07/12 03:41:36;;;;;;;3.90;3.57;;;;;;;20.20;96.97;99559.28;4976829;28;20283;-83
2023/07/12 03:44:03;;;;;;;4.00;3.70;;;;;;;20.38;95.35;99589.75;4978605;28;20575;-85
2023/07/12 03:46:29;;;;;;;3.90;3.60;;;;;;;20.58;93.52;99622.72;4977839;28;20219;-84
2023/07/12 03:48:56;;;;;;;3.87;3.57;;;;;;;20.69;92.24;99650.28;4979179;28;20200;-85
2023/07/12 03:51:22;;;;;;;4.60;4.00;;;;;;;20.77;91.60;99675.31;4978724;28;20262;-85
2023/07/12 03:53:49;;;;;;;3.97;3.67;;;;;;;20.71;91.59;99704.06;4970139;28;20283;-85
2023/07/12 03:56:16;;;;;;;5.03;3.63;;;;;;;20.79;90.29;99712.31;4979528;28;20732;-84
2023/07/12 03:58:43;;;;;;;4.10;3.60;;;;;;;20.92;89.57;99725.53;4979118;28;20204;-85
2023/07/12 04:01:11;;;;;;;3.07;2.77;;;;;;;20.91;89.72;99730.00;4978833;28;20623;-85
2023/07/12 04:03:38;;;;;;;3.10;2.70;;;;;;;20.88;88.60;99754.09;4977960;28;20625;-84
2023/07/12 04:06:06;;;;;;;3.73;3.27;;;;;;;20.76;89.25;99777.06;4978599;28;20230;-85
2023/07/12 04:08:33;;;;;;;2.67;2.47;;;;;;;20.65;90.17;99750.44;4970651;28;20641;-85
2023/07/12 04:11:00;;;;;;;2.77;2.57;;;;;;;20.76;89.65;99770.91;4979270;28;20208;-84
2023/07/12 04:13:28;;;;;;;2.80;2.60;;;;;;;20.71;89.26;99778.34;4978416;28;20230;-84
2023/07/12 04:15:56;;;;;;;2.97;2.77;;;;;;;20.76;88.79;99785.00;4979097;28;20200;-84
2023/07/12 04:18:23;;;;;;;3.40;2.53;;;;;;;20.78;89.21;99772.47;4980399;28;20270;-84
2023/07/12 04:20:49;;;;;;;2.83;2.60;;;;;;;20.85;88.68;99786.13;4980582;28;20663;-84
2023/07/12 04:23:15;;;;;;;3.10;2.90;;;;;;;20.89;88.75;99776.16;4979428;28;20223;-84
2023/07/12 04:25:42;;;;;;;3.20;3.00;;;;;;;20.94;88.69;99772.22;4976037;28;20270;-84
2023/07/12 04:28:09;;;;;;;3.50;3.07;;;;;;;20.85;89.50;99791.44;4975212;28;20228;-84
2023/07/12 04:30:37;;;;;;;3.53;2.90;;;;;;;20.97;88.84;99801.19;4976213;28;20208;-84
2023/07/12 04:33:05;;;;;;;3.40;2.80;;;;;;;20.78;89.91;99796.34;4975357;28;20204;-81
2023/07/12 04:35:31;;;;;;;2.50;2.30;;;;;;;20.89;89.58;99795.59;4975648;28;20208;-84
2023/07/12 04:37:58;;;;;;;3.40;2.83;;;;;;;20.78;91.22;99766.34;4962721;28;20213;-82
2023/07/12 04:40:24;;;;;;;2.83;2.50;;;;;;;20.83;90.67;99780.97;4972004;28;20273;-84
2023/07/12 04:42:50;;;;;;;2.20;2.10;;;;;;;20.99;89.80;99787.78;4975355;28;20758;-84
2023/07/12 04:45:17;;;;;;;2.80;2.60;;;;;;;21.10;89.58;99789.69;4975415;28;20258;-84
2023/07/12 04:47:45;;;;;;;2.40;2.20;;;;;;;21.08;88.73;99808.34;4975596;28;20595;-83
2023/07/12 04:50:11;;;;;;;2.80;2.60;;;;;;;21.11;88.81;99815.25;4975368;28;20321;-84
2023/07/12 04:52:38;;;;;;;2.60;2.40;;;;;;;21.17;88.51;99810.34;4974797;28;20255;-83
2023/07/12 04:55:06;;;;;;;2.70;2.50;;;;;;;21.27;88.03;99807.00;4975806;28;20610;-84
2023/07/12 04:57:33;;;;;;;3.70;3.00;;;;;;;21.20;88.26;99814.59;4977023;28;20223;-84
2023/07/12 04:59:59;;;;;;;3.03;2.57;;;;;;;20.89;90.74;99770.84;4983698;28;20201;-83
2023/07/12 05:02:25;;;;;;;2.40;2.20;;;;;;;21.01;89.96;99812.44;4959902;28;20224;-84
2023/07/12 05:04:53;;;;;;;3.37;2.47;;;;;;;20.84;90.49;99811.00;4981531;28;20266;-84
2023/07/12 05:07:19;;;;;;;2.33;2.13;;;;;;;20.47;91.97;99795.00;4979698;28;20220;-83
2023/07/12 05:09:46;;;;;;;2.73;2.53;;;;;;;20.30;94.57;99732.59;4963706;28;20215;-82
2023/07/12 05:12:12;;;;;;;2.47;2.20;;;;;;;20.41;93.99;99745.06;4979366;28;20204;-84
2023/07/12 05:14:38;;;;;;;3.07;2.40;;;;;;;20.30;94.75;99721.97;4978944;28;20200;-84
2023/07/12 05:17:05;;;;;;;2.40;2.20;;;;;;;20.34;94.59;99726.09;4978969;28;20224;-84
2023/07/12 05:19:32;;;;;;;3.50;1.93;;;;;;;20.16;94.44;99728.25;4978470;28;20207;-83
2023/07/12 05:21:59;;;;;;;1.90;1.80;;;;;;;20.09;94.69;99740.22;4979149;28;20219;-83
2023/07/12 05:24:25;;;;;;;1.83;1.40;;;;;;;19.96;93.57;99742.03;4978785;28;20204;-83
2023/07/12 05:26:52;;;;;;;1.50;1.37;;;;;;;19.87;91.04;99799.16;4999551;23;20243;-83
2023/07/12 05:29:18;;;;;;;1.40;1.30;;;;;;;19.98;90.49;99822.25;4977737;28;20234;-85
2023/07/12 05:31:45;;;;;;;1.73;1.17;;;;;;;19.96;89.78;99840.91;4971305;28;20244;-83
2023/07/12 05:34:11;;;;;;;0.97;0.97;;;;;;;20.12;88.80;99869.88;4956408;28;20204;-81
2023/07/12 05:36:37;;;;;;;1.40;1.30;;;;;;;20.07;88.27;99882.56;4976605;28;20200;-82
2023/07/12 05:39:05;;;;;;;2.73;1.10;;;;;;;20.08;88.02;99883.41;4975481;28;20334;-82
2023/07/12 05:41:31;;;;;;;2.03;1.30;;;;;;;20.20;86.68;99894.03;4977097;28;20204;-82
2023/07/12 05:43:58;;;;;;;1.10;1.10;;;;;;;20.00;88.78;99868.91;4967393;28;20356;-82
2023/07/12 05:46:24;;;;;;;1.53;1.10;;;;;;;20.09;87.80;99885.97;4984311;28;20225;-83
2023/07/12 05:48:50;;;;;;;1.00;1.00;;;;;;;20.15;87.66;99897.97;4975694;28;20223;-82
2023/07/12 05:51:17;;;;;;;1.17;1.07;;;;;;;20.21;87.61;99900.19;4978155;28;20205;-83
2023/07/12 05:53:43;;;;;;;1.23;1.00;;;;;;;19.99;87.66;99887.53;4973658;28;20204;-82
2023/07/12 05:56:11;;;;;;;1.40;1.30;;;;;;;20.01;85.35;99930.69;4975580;28;20200;-80
2023/07/12 05:58:37;;;;;;;1.30;1.10;;;;;;;19.87;85.56;99967.84;4965967;28;20707;-81
2023/07/12 06:01:03;;;;;;;1.47;1.37;;;;;;;19.94;84.92;99975.28;4968352;28;20208;-79
2023/07/12 06:03:32;;;;;;;1.30;1.20;;;;;;;20.08;82.22;100037.97;4975190;28;20274;-81
2023/07/12 06:05:59;;;;;;;1.43;0.90;;;;;;;20.06;80.00;100094.63;4975772;28;20691;-82
2023/07/12 06:08:27;;;;;;;1.70;1.30;;;;;;;19.92;80.70;100103.47;4975347;28;20216;-80
2023/07/12 06:10:53;;;;;;;1.43;1.00;;;;;;;19.85;80.56;100105.66;4985029;28;20199;-81
2023/07/12 06:13:21;;;;;;;1.53;1.10;;;;;;;19.81;81.43;100081.16;4979639;28;20205;-80
2023/07/12 06:15:47;;;;;;;1.03;0.90;;;;;;;20.01;81.56;100065.78;4975867;28;20240;-81
2023/07/12 06:18:14;;;;;;;1.83;1.00;;;;;;;20.10;81.01;100065.22;4973383;28;20227;-81
2023/07/12 06:20:40;;;;;;;1.67;1.00;;;;;;;20.11;79.98;100082.81;4989607;28;20204;-80
2023/07/12 06:23:07;;;;;;;2.80;0.90;;;;;;;19.86;80.43;100082.66;4987890;28;20255;-80
2023/07/12 06:25:33;;;;;;;1.17;0.97;;;;;;;20.06;80.28;100078.75;4982111;28;20208;-81
2023/07/12 06:27:59;;;;;;;0.80;0.80;;;;;;;20.10;78.95;100104.09;4976660;28;20228;-81
2023/07/12 06:30:27;;;;;;;2.00;1.10;;;;;;;20.29;78.73;100107.25;4960630;28;20207;-81
2023/07/12 06:32:53;;;;;;;2.60;0.93;;;;;;;20.32;77.47;100127.44;4973505;28;20255;-80
2023/07/12 06:35:20;;;;;;;1.43;0.93;;;;;;;20.31;77.24;100144.28;4975829;28;20203;-81
2023/07/12 06:37:46;;;;;;;2.10;0.83;;;;;;;20.43;76.91;100162.03;4975536;28;20229;-83
2023/07/12 06:40:13;;;;;;;1.10;1.00;;;;;;;20.47;76.51;100152.94;4978380;28;20208;-80
2023/07/12 06:42:39;;;;;;;1.30;1.10;;;;;;;20.69;76.36;100149.75;4973379;28;20224;-78
2023/07/12 06:45:06;;;;;;;2.40;1.10;;;;;;;20.86;76.01;100151.31;4956417;28;20260;-80
2023/07/12 06:47:34;;;;;;;0.80;0.77;;;;;;;20.86;72.89;100214.16;4957646;28;20593;-78
2023/07/12 06:50:01;;;;;;;1.33;0.90;;;;;;;20.98;72.91;100253.97;4974248;28;20200;-79
2023/07/12 06:52:27;;;;;;;1.80;0.80;;;;;;;20.90;72.01;100260.75;4989837;28;20274;-78
2023/07/12 06:54:54;;;;;;;1.23;0.60;;;;;;;20.77;72.52;100280.13;4975447;28;20209;-78
2023/07/12 06:57:20;;;;;;;1.93;0.70;;;;;;;20.74;73.29;100287.41;4975106;28;20224;-77
2023/07/12 06:59:46;;;;;;;0.90;0.77;;;;;;;20.71;72.91;100293.75;4974787;28;20247;-80
2023/07/12 07:02:14;;;;;;;1.17;0.70;;;;;;;20.85;72.10;100290.22;4975038;28;20278;-77
2023/07/12 07:04:42;;;;;;;1.07;0.43;;;;;;;20.95;71.48;100322.31;4974606;28;20685;-79
2023/07/12 07:07:08;;;;;;;1.63;0.50;;;;;;;21.03;70.17;100363.38;4979296;28;20274;-80
2023/07/12 07:09:38;;;;;;;0.70;0.47;;;;;;;20.98;70.46;100367.25;4979513;28;20236;-82
2023/07/12 07:12:05;;;;;;;1.10;0.80;;;;;;;20.94;69.23;100386.97;4975220;28;20762;-83
2023/07/12 07:14:31;;;;;;;1.30;0.73;;;;;;;21.11;69.82;100377.94;4973759;28;20204;-81
2023/07/12 07:16:58;;;;;;;0.73;0.63;;;;;;;21.05;68.66;100394.25;4974117;28;20633;-80
2023/07/12 07:19:24;;;;;;;1.17;0.80;;;;;;;21.18;68.81;100393.38;4974803;28;20671;-82
2023/07/12 07:21:52;;;;;;;0.87;0.70;;;;;;;21.22;68.37;100408.16;4981134;28;20207;-83
2023/07/12 07:24:18;;;;;;;1.57;0.80;;;;;;;21.32;67.75;100424.34;4953972;28;20224;-81
2023/07/12 07:26:45;;;;;;;0.70;0.70;;;;;;;21.15;65.97;100473.22;4975943;28;20240;-82
2023/07/12 07:29:11;;;;;;;1.60;0.70;;;;;;;21.25;65.02;100480.59;4988399;28;20260;-79
2023/07/12 07:31:38;;;;;;;1.27;0.57;;;;;;;21.40;65.54;100514.13;4956495;28;20858;-80
2023/07/12 07:34:04;;;;;;;1.43;0.67;;;;;;;21.37;65.14;100514.34;4974933;28;20223;-81
2023/07/12 07:36:31;;;;;;;1.13;0.73;;;;;;;21.29;65.08;100541.38;4990831;28;20254;-80
2023/07/12 07:38:58;;;;;;;1.33;0.60;;;;;;;21.36;65.21;100505.50;4968849;28;20260;-82
2023/07/12 07:41:25;;;;;;;1.60;0.70;;;;;;;21.41;64.91;100518.53;4975840;28;20196;-82
2023/07/12 07:43:51;;;;;;;1.03;0.60;;;;;;;21.55;64.81;100505.25;4975503;28;20220;-81
2023/07/12 07:46:17;;;;;;;1.17;0.77;;;;;;;21.49;62.15;100585.31;4975017;28;20275;-80
2023/07/12 07:48:44;;;;;;;1.27;0.60;;;;;;;21.46;61.34;100616.53;4976206;28;20244;-82
2023/07/12 07:51:11;;;;;;;1.50;0.53;;;;;;;21.35;61.20;100641.91;4975888;28;20262;-82
2023/07/12 07:53:37;;;;;;;1.40;0.70;;;;;;;21.42;61.59;100637.91;4975523;28;20200;-82
2023/07/12 07:56:05;;;;;;;1.13;0.50;;;;;;;21.33;62.63;100625.22;4976572;28;20235;-80
2023/07/12 07:58:32;;;;;;;1.27;0.60;;;;;;;21.37;63.07;100602.00;4975368;28;20690;-78
2023/07/12 08:00:58;;;;;;;2.63;0.80;;;;;;;21.32;63.48;100585.47;4974972;28;20258;-80
2023/07/12 08:03:25;;;;;;;1.10;0.50;;;;;;;21.28;63.90;100574.19;4974925;28;20231;-82
2023/07/12 08:05:51;;;;;;;3.77;1.90;;;;;;;21.17;63.18;100574.84;4975890;28;20667;-84
2023/07/12 08:08:20;;;;;;;1.20;0.70;;;;;;;21.22;64.94;100540.88;4973994;28;20220;-83
2023/07/12 08:10:46;;;;;;;0.73;0.57;;;;;;;21.36;65.35;100516.13;4982386;28;20677;-82
2023/07/12 08:13:14;;;;;;;0.50;0.40;;;;;;;21.42;64.05;100523.72;4981749;28;20655;-82
2023/07/12 08:15:41;;;;;;;1.00;0.60;;;;;;;21.59;64.97;100522.69;4975943;28;20204;-80
2023/07/12 08:18:10;;;;;;;0.87;0.50;;;;;;;21.65;64.47;100531.22;4976327;28;20226;-81
2023/07/12 08:20:36;;;;;;;1.90;0.60;;;;;;;21.72;63.72;100544.00;4977034;28;20687;-79
2023/07/12 08:23:03;;;;;;;0.77;0.77;;;;;;;21.55;63.93;100571.66;4975125;28;20224;-79
2023/07/12 08:25:29;;;;;;;0.97;0.50;;;;;;;21.35;63.78;100569.38;4976380;28;20666;-82
2023/07/12 08:27:55;;;;;;;0.80;0.60;;;;;;;21.41;62.20;100606.16;4975261;28;20251;-79
2023/07/12 08:30:23;;;;;;;1.23;0.70;;;;;;;21.48;63.96;100596.03;4976348;28;20204;-81
2023/07/12 08:32:49;;;;;;;5.30;0.83;;;;;;;21.24;64.17;100585.94;4977273;28;20196;-80
2023/07/12 08:35:16;;;;;;;1.70;0.80;;;;;;;20.99;64.23;100571.50;4975582;28;20592;-81
2023/07/12 08:37:42;;;;;;;4.53;1.20;;;;;;;21.14;63.62;100575.03;4959641;28;20699;-81
2023/07/12 08:40:14;;;;;;;1.63;1.00;;;;;;;21.15;64.65;100571.44;4961075;28;20275;-81
2023/07/12 08:42:42;;;;;;;2.10;1.00;;;;;;;21.10;64.80;100559.38;4959451;28;20754;-79
2023/07/12 08:45:20;;;;;;;1.50;1.40;;;;;;;20.85;63.89;100587.38;4966946;28;20255;-81
2023/07/12 08:47:50;;;;;;;2.07;1.30;;;;;;;20.84;64.16;100577.72;4963446;28;20264;-81
2023/07/12 08:50:17;;;;;;;1.80;1.50;;;;;;;20.88;64.61;100554.53;4963734;28;20211;-80
2023/07/12 08:52:46;;;;;;;1.63;1.53;;;;;;;20.78;64.27;100565.69;4985595;28;20566;-82
2023/07/12 08:55:16;;;;;;;1.60;1.50;;;;;;;20.91;64.78;100567.59;4972210;28;20228;-83
2023/07/12 08:57:43;;;;;;;1.93;1.70;;;;;;;21.09;65.22;100560.31;4978846;28;20271;-83
2023/07/12 09:00:14;;;;;;;1.90;1.80;;;;;;;21.15;65.57;100542.25;4979547;28;20196;-81
2023/07/12 09:02:40;;;;;;;1.80;1.70;;;;;;;21.32;64.36;100556.25;4976654;28;20193;-80
2023/07/12 09:05:13;;;;;;;1.70;1.60;;;;;;;21.34;65.04;100568.50;4975098;28;20916;-83
2023/07/12 09:07:46;;;;;;;1.70;1.60;;;;;;;21.22;64.97;100577.22;4972070;28;20221;-82
2023/07/12 09:10:12;;;;;;;4.83;1.73;;;;;;;21.12;65.11;100563.66;4974803;28;20742;-82
2023/07/12 09:12:38;;;;;;;2.70;2.50;;;;;;;21.15;65.16;100551.97;4972426;28;20216;-82
2023/07/12 09:15:12;;;;;;;3.57;2.53;;;;;;;20.96;64.95;100560.22;4978142;28;20219;-82
2023/07/12 09:17:43;;;;;;;1.87;1.77;;;;;;;20.87;64.95;100544.84;4977496;28;20227;-81
2023/07/12 09:20:23;;;;;;;2.50;1.97;;;;;;;20.98;65.33;100543.25;4972582;28;20218;-83
2023/07/12 09:22:50;;;;;;;2.17;2.07;;;;;;;21.09;63.75;100568.28;4978636;28;20204;-83
2023/07/12 09:25:21;;;;;;;2.83;2.20;;;;;;;21.28;63.15;100602.53;4980017;28;20200;-82
2023/07/12 09:27:48;;;;;;;2.20;2.10;;;;;;;21.41;62.03;100624.75;4981762;28;20459;-83
2023/07/12 09:30:21;;;;;;;2.90;2.40;;;;;;;21.33;61.37;100656.25;4978075;28;20287;-81
2023/07/12 09:32:49;;;;;;;2.50;2.30;;;;;;;21.52;63.16;100632.91;4965525;28;20225;-84
2023/07/12 09:35:26;;;;;;;2.77;2.50;;;;;;;21.64;63.20;100633.97;4971731;28;20204;-85
2023/07/12 09:37:58;;;;;;;2.50;2.37;;;;;;;21.51;62.47;100649.81;4984099;28;20290;-83
2023/07/12 09:40:24;;;;;;;3.37;2.57;;;;;;;21.36;63.00;100640.94;4984381;28;20262;-84
2023/07/12 09:42:57;;;;;;;2.60;2.50;;;;;;;21.26;63.31;100639.81;4982810;28;20234;-84
2023/07/12 09:45:29;;;;;;;2.93;2.73;;;;;;;21.28;64.22;100589.25;4972162;28;20208;-82
2023/07/12 09:48:03;;;;;;;2.60;2.40;;;;;;;21.25;63.73;100600.94;4985662;28;20614;-84
2023/07/12 09:50:38;;;;;;;3.13;3.00;;;;;;;21.52;63.61;100608.16;4990062;28;20204;-83
2023/07/12 09:53:10;;;;;;;3.53;3.33;;;;;;;21.60;62.88;100625.34;4965390;28;20204;-82
2023/07/12 09:55:39;;;;;;;3.20;3.00;;;;;;;;;;4982910;28;20196;-79
2023/07/12 09:58:20;;;;;;;3.80;3.50;;;;;;;21.74;63.12;100640.44;4989805;28;20282;-82
2023/07/12 10:00:53;;;;;;;2.97;2.77;;;;;;;21.46;60.98;100678.47;4995441;28;20196;-83
2023/07/12 10:03:24;;;;;;;2.60;2.50;;;;;;;21.45;60.93;100705.09;4987436;28;20278;-78
2023/07/12 10:05:57;;;;;;;2.63;2.43;;;;;;;21.50;61.92;100695.91;4982734;28;20207;-82
2023/07/12 10:08:27;;;;;;;2.57;2.27;;;;;;;21.47;60.84;100735.13;4978242;28;20647;-80
2023/07/12 10:10:57;;;;;;;1.97;1.87;;;;;;;21.46;59.72;100736.03;4979950;28;20236;-81
2023/07/12 10:13:36;;;;;;;1.97;1.87;;;;;;;21.28;60.81;100722.88;4981972;28;20251;-81
2023/07/12 10:16:06;;;;;;;3.07;2.87;;;;;;;21.26;61.91;100711.50;4966590;28;20201;-83
2023/07/12 10:18:35;;;;;;;2.90;2.70;;;;;;;21.50;61.52;100695.91;4984368;28;20324;-83
2023/07/12 10:21:04;;;;;;;2.90;2.70;;;;;;;21.74;61.79;100701.56;4985345;28;20201;-81
2023/07/12 10:23:44;;;;;;;3.27;3.07;;;;;;;21.79;60.71;100703.91;4983648;28;20251;-83
2023/07/12 10:26:15;;;;;;;3.40;3.20;;;;;;;21.63;60.39;100717.28;4983084;28;20212;-83
2023/07/12 10:28:47;;;;;;;3.63;3.43;;;;;;;21.49;61.29;100712.81;4976836;28;20235;-80
2023/07/12 10:31:32;;;;;;;3.17;2.83;;;;;;;21.68;61.32;100709.88;4976753;28;20212;-83
2023/07/12 10:34:13;;;;;;;3.13;2.93;;;;;;;21.73;60.44;100709.63;4976472;28;20195;-83
2023/07/12 10:36:43;;;;;;;3.13;2.70;;;;;;;21.87;60.69;100720.25;4976553;28;20204;-82
2023/07/12 10:39:10;;;;;;;2.60;2.50;;;;;;;21.83;59.66;100739.13;4973394;28;20224;-83
2023/07/12 10:41:44;;;;;;;2.83;2.63;;;;;;;22.09;59.89;100746.34;4975973;28;20239;-84
2023/07/12 10:44:18;;;;;;;2.70;2.60;;;;;;;22.36;58.69;100767.75;4976891;28;20225;-82
2023/07/12 10:46:48;;;;;;;2.80;2.60;;;;;;;22.19;59.40;100795.34;4972545;28;20204;-82
2023/07/12 10:49:18;;;;;;;3.20;2.80;;;;;;;22.24;57.25;100795.09;4982523;28;20236;-82
2023/07/12 10:52:05;;;;;;;2.50;2.30;;;;;;;22.12;56.01;100846.31;4980186;28;20291;-81
2023/07/12 10:54:51;;;;;;;2.80;2.60;;;;;;;21.98;56.60;100881.72;4973441;28;20196;-82
2023/07/12 10:57:27;;;;;;;2.43;2.33;;;;;;;22.01;57.28;100862.94;4980357;28;20234;-80
2023/07/12 11:00:19;;;;;;;2.60;2.40;;;;;;;22.37;57.69;100843.06;4978752;28;20203;-83
2023/07/12 11:02:48;;;;;;;3.00;2.80;;;;;;;22.41;58.00;100840.09;4979727;28;20208;-82
2023/07/12 11:05:43;;;;;;;2.97;2.87;;;;;;;22.54;56.45;100864.16;4980137;28;20219;-82
2023/07/12 11:08:40;;;;;;;2.80;2.60;;;;;;;22.43;55.08;100914.50;4980277;28;20232;-83
2023/07/12 11:11:41;;;;;;;2.70;2.50;;;;;;;22.46;55.81;100935.63;4978860;28;20259;-84
2023/07/12 11:14:21;;;;;;;2.87;2.67;;;;;;;22.58;55.48;100920.72;4978334;28;20196;-84
2023/07/12 11:16:51;;;;;;;2.80;2.60;;;;;;;22.70;55.73;100909.28;4975289;28;20200;-83
2023/07/12 11:19:43;;;;;;;2.80;2.60;;;;;;;22.39;57.62;100887.22;4981374;28;20196;-83
2023/07/12 11:22:13;;;;;;;3.07;2.87;;;;;;;22.43;56.40;100858.63;4998365;28;20251;-81
2023/07/12 11:24:58;;;;;;;3.07;2.87;;;;;;;22.66;55.86;100865.19;4984897;28;20272;-82
2023/07/12 11:27:40;;;;;;;5.20;2.90;;;;;;;23.09;55.89;100882.94;4987130;28;20227;-84
2023/07/12 11:30:23;;;;;;;2.60;2.40;;;;;;;23.16;53.51;100954.34;4985668;28;20220;-81
2023/07/12 11:32:53;;;;;;;2.63;2.43;;;;;;;23.30;51.44;101011.22;4968629;28;20197;-82
2023/07/12 11:35:24;;;;;;;2.90;2.70;;;;;;;23.37;52.79;101040.06;4967724;28;20750;-80